Terminal Aerodrome Forecast
Issued by NWS Bismarck, ND

Home | Current Version | Previous Version | Graphics & Text | Print | Product List | Glossary On
Versions: 1 2 3 4 5 6 7 8 9 10 11 12 13 14 15 16 17
000
FTUS43 KBIS 250953 AAD
TAFBIS
TAF AMD
KBIS 250953Z 2510/2606 11010KT 3SM BR OVC003
     FM251300 14012KT 6SM BR SCT003
     FM251600 14015KT P6SM SCT120
     FM260000 15007KT P6SM BKN120=

USA.gov is the U.S. government's official web portal to all federal, state and local government web resources and services.